sensor_id;sensor_type;location;lat;lon;timestamp;P1;durP1;ratioP1;P2;durP2;ratioP2
5702;SDS011;2876;51.738;10.050;2023-03-21T00:03:34;7.40;;;4.63;;
5702;SDS011;2876;51.738;10.050;2023-03-21T00:09:36;10.70;;;4.70;;
5702;SDS011;2876;51.738;10.050;2023-03-21T00:15:39;8.30;;;4.67;;
5702;SDS011;2876;51.738;10.050;2023-03-21T00:22:11;12.57;;;5.53;;
5702;SDS011;2876;51.738;10.050;2023-03-21T00:28:13;7.07;;;4.73;;
5702;SDS011;2876;51.738;10.050;2023-03-21T00:34:14;8.63;;;4.97;;
5702;SDS011;2876;51.738;10.050;2023-03-21T00:40:31;6.60;;;4.20;;
5702;SDS011;2876;51.738;10.050;2023-03-21T00:46:40;8.47;;;5.27;;
5702;SDS011;2876;51.738;10.050;2023-03-21T00:52:57;9.03;;;5.40;;
5702;SDS011;2876;51.738;10.050;2023-03-21T00:58:59;9.03;;;4.50;;
5702;SDS011;2876;51.738;10.050;2023-03-21T01:05:01;9.03;;;4.80;;
5702;SDS011;2876;51.738;10.050;2023-03-21T01:11:04;9.63;;;4.70;;
5702;SDS011;2876;51.738;10.050;2023-03-21T01:17:11;8.53;;;4.50;;
5702;SDS011;2876;51.738;10.050;2023-03-21T01:23:14;11.07;;;5.70;;
5702;SDS011;2876;51.738;10.050;2023-03-21T01:29:16;9.10;;;5.07;;
5702;SDS011;2876;51.738;10.050;2023-03-21T01:35:19;6.33;;;4.77;;
5702;SDS011;2876;51.738;10.050;2023-03-21T01:41:30;6.97;;;5.50;;
5702;SDS011;2876;51.738;10.050;2023-03-21T01:47:44;9.07;;;6.20;;
5702;SDS011;2876;51.738;10.050;2023-03-21T01:53:46;12.93;;;6.00;;
5702;SDS011;2876;51.738;10.050;2023-03-21T01:59:50;11.03;;;5.97;;
5702;SDS011;2876;51.738;10.050;2023-03-21T02:05:55;15.23;;;5.87;;
5702;SDS011;2876;51.738;10.050;2023-03-21T02:12:01;11.23;;;6.40;;
5702;SDS011;2876;51.738;10.050;2023-03-21T02:31:27;10.30;;;6.20;;
5702;SDS011;2876;51.738;10.050;2023-03-21T02:38:50;13.83;;;6.73;;
5702;SDS011;2876;51.738;10.050;2023-03-21T02:45:10;14.90;;;6.93;;
5702;SDS011;2876;51.738;10.050;2023-03-21T02:51:17;12.53;;;7.90;;
5702;SDS011;2876;51.738;10.050;2023-03-21T02:57:23;13.40;;;7.83;;
5702;SDS011;2876;51.738;10.050;2023-03-21T03:03:37;9.63;;;7.03;;
5702;SDS011;2876;51.738;10.050;2023-03-21T03:16:27;13.47;;;8.53;;
5702;SDS011;2876;51.738;10.050;2023-03-21T03:29:30;14.90;;;8.20;;
5702;SDS011;2876;51.738;10.050;2023-03-21T03:35:36;11.30;;;7.60;;
5702;SDS011;2876;51.738;10.050;2023-03-21T03:41:53;14.50;;;8.03;;
5702;SDS011;2876;51.738;10.050;2023-03-21T03:54:47;13.20;;;8.53;;
5702;SDS011;2876;51.738;10.050;2023-03-21T04:00:52;15.20;;;7.53;;
5702;SDS011;2876;51.738;10.050;2023-03-21T04:06:56;11.33;;;6.73;;
5702;SDS011;2876;51.738;10.050;2023-03-21T04:12:58;11.77;;;7.07;;
5702;SDS011;2876;51.738;10.050;2023-03-21T04:19:00;14.63;;;6.70;;
5702;SDS011;2876;51.738;10.050;2023-03-21T04:25:02;10.83;;;7.43;;
5702;SDS011;2876;51.738;10.050;2023-03-21T04:31:07;12.90;;;8.60;;
5702;SDS011;2876;51.738;10.050;2023-03-21T04:37:25;12.20;;;7.80;;
5702;SDS011;2876;51.738;10.050;2023-03-21T04:43:28;9.63;;;6.90;;
5702;SDS011;2876;51.738;10.050;2023-03-21T04:49:31;10.97;;;7.23;;
5702;SDS011;2876;51.738;10.050;2023-03-21T04:55:33;18.93;;;8.17;;
5702;SDS011;2876;51.738;10.050;2023-03-21T05:01:37;10.53;;;7.40;;
5702;SDS011;2876;51.738;10.050;2023-03-21T05:07:41;12.43;;;7.63;;
5702;SDS011;2876;51.738;10.050;2023-03-21T05:13:43;9.40;;;6.70;;
5702;SDS011;2876;51.738;10.050;2023-03-21T05:19:45;12.53;;;7.10;;
5702;SDS011;2876;51.738;10.050;2023-03-21T05:25:47;14.97;;;7.63;;
5702;SDS011;2876;51.738;10.050;2023-03-21T05:31:49;12.60;;;7.10;;
5702;SDS011;2876;51.738;10.050;2023-03-21T05:37:51;10.77;;;6.83;;
5702;SDS011;2876;51.738;10.050;2023-03-21T05:43:53;11.73;;;6.63;;
5702;SDS011;2876;51.738;10.050;2023-03-21T05:49:55;10.50;;;6.43;;
5702;SDS011;2876;51.738;10.050;2023-03-21T05:55:57;11.67;;;7.13;;
5702;SDS011;2876;51.738;10.050;2023-03-21T06:01:59;11.93;;;6.20;;
5702;SDS011;2876;51.738;10.050;2023-03-21T06:08:02;14.17;;;6.80;;
5702;SDS011;2876;51.738;10.050;2023-03-21T06:14:04;14.80;;;7.00;;
5702;SDS011;2876;51.738;10.050;2023-03-21T06:20:06;11.30;;;6.90;;
5702;SDS011;2876;51.738;10.050;2023-03-21T06:26:09;11.00;;;7.00;;
5702;SDS011;2876;51.738;10.050;2023-03-21T06:32:11;13.03;;;7.20;;
5702;SDS011;2876;51.738;10.050;2023-03-21T06:38:14;13.73;;;7.10;;
5702;SDS011;2876;51.738;10.050;2023-03-21T06:44:15;9.93;;;6.43;;
5702;SDS011;2876;51.738;10.050;2023-03-21T06:50:17;12.57;;;7.07;;
5702;SDS011;2876;51.738;10.050;2023-03-21T06:56:20;8.53;;;5.60;;
5702;SDS011;2876;51.738;10.050;2023-03-21T07:02:22;12.50;;;5.70;;
5702;SDS011;2876;51.738;10.050;2023-03-21T07:08:23;13.30;;;5.63;;
5702;SDS011;2876;51.738;10.050;2023-03-21T07:14:26;14.30;;;6.50;;
5702;SDS011;2876;51.738;10.050;2023-03-21T07:20:27;10.13;;;5.67;;
5702;SDS011;2876;51.738;10.050;2023-03-21T07:26:29;15.10;;;6.17;;
5702;SDS011;2876;51.738;10.050;2023-03-21T07:32:32;9.97;;;5.10;;
5702;SDS011;2876;51.738;10.050;2023-03-21T07:38:35;10.40;;;6.10;;
5702;SDS011;2876;51.738;10.050;2023-03-21T07:44:37;14.07;;;5.50;;
5702;SDS011;2876;51.738;10.050;2023-03-21T07:50:39;11.30;;;6.00;;
5702;SDS011;2876;51.738;10.050;2023-03-21T07:56:41;14.77;;;7.17;;
5702;SDS011;2876;51.738;10.050;2023-03-21T08:02:43;11.60;;;6.23;;
5702;SDS011;2876;51.738;10.050;2023-03-21T08:08:45;12.33;;;6.33;;
5702;SDS011;2876;51.738;10.050;2023-03-21T08:14:47;14.70;;;6.47;;
5702;SDS011;2876;51.738;10.050;2023-03-21T08:20:50;11.23;;;5.83;;
5702;SDS011;2876;51.738;10.050;2023-03-21T08:26:56;8.70;;;5.07;;
5702;SDS011;2876;51.738;10.050;2023-03-21T08:32:58;12.00;;;6.30;;
5702;SDS011;2876;51.738;10.050;2023-03-21T08:39:02;16.27;;;6.03;;
5702;SDS011;2876;51.738;10.050;2023-03-21T08:45:06;11.00;;;5.60;;
5702;SDS011;2876;51.738;10.050;2023-03-21T08:51:09;10.53;;;6.93;;
5702;SDS011;2876;51.738;10.050;2023-03-21T08:57:11;10.63;;;6.60;;
5702;SDS011;2876;51.738;10.050;2023-03-21T09:03:13;17.53;;;6.90;;
5702;SDS011;2876;51.738;10.050;2023-03-21T09:09:15;15.43;;;6.77;;
5702;SDS011;2876;51.738;10.050;2023-03-21T09:15:17;19.07;;;6.40;;
5702;SDS011;2876;51.738;10.050;2023-03-21T09:21:22;18.70;;;7.07;;
5702;SDS011;2876;51.738;10.050;2023-03-21T09:27:25;15.70;;;6.93;;
5702;SDS011;2876;51.738;10.050;2023-03-21T09:33:28;11.80;;;6.50;;
5702;SDS011;2876;51.738;10.050;2023-03-21T09:39:31;12.03;;;6.30;;
5702;SDS011;2876;51.738;10.050;2023-03-21T09:45:39;13.10;;;7.10;;
5702;SDS011;2876;51.738;10.050;2023-03-21T09:59:34;14.97;;;6.93;;
5702;SDS011;2876;51.738;10.050;2023-03-21T10:05:40;18.30;;;7.87;;
5702;SDS011;2876;51.738;10.050;2023-03-21T10:11:46;15.43;;;7.83;;
5702;SDS011;2876;51.738;10.050;2023-03-21T10:17:57;13.20;;;7.50;;
5702;SDS011;2876;51.738;10.050;2023-03-21T10:24:07;21.57;;;8.17;;
5702;SDS011;2876;51.738;10.050;2023-03-21T10:36:45;12.50;;;8.30;;
5702;SDS011;2876;51.738;10.050;2023-03-21T10:42:48;14.83;;;8.30;;
5702;SDS011;2876;51.738;10.050;2023-03-21T10:48:50;12.47;;;7.40;;
5702;SDS011;2876;51.738;10.050;2023-03-21T10:55:04;13.40;;;7.37;;
5702;SDS011;2876;51.738;10.050;2023-03-21T11:01:26;12.90;;;7.23;;
5702;SDS011;2876;51.738;10.050;2023-03-21T11:07:34;15.10;;;7.30;;
5702;SDS011;2876;51.738;10.050;2023-03-21T11:13:41;11.43;;;6.87;;
5702;SDS011;2876;51.738;10.050;2023-03-21T11:20:05;12.03;;;6.67;;
5702;SDS011;2876;51.738;10.050;2023-03-21T11:26:15;11.53;;;6.63;;
5702;SDS011;2876;51.738;10.050;2023-03-21T11:32:37;11.63;;;6.97;;
5702;SDS011;2876;51.738;10.050;2023-03-21T11:38:39;14.60;;;7.67;;
5702;SDS011;2876;51.738;10.050;2023-03-21T11:44:42;13.13;;;7.77;;
5702;SDS011;2876;51.738;10.050;2023-03-21T11:50:45;13.20;;;6.20;;
5702;SDS011;2876;51.738;10.050;2023-03-21T11:56:51;15.93;;;7.30;;
5702;SDS011;2876;51.738;10.050;2023-03-21T12:03:17;17.80;;;8.00;;
5702;SDS011;2876;51.738;10.050;2023-03-21T12:09:36;11.37;;;6.73;;
5702;SDS011;2876;51.738;10.050;2023-03-21T12:16:18;19.53;;;7.43;;
5702;SDS011;2876;51.738;10.050;2023-03-21T12:23:16;10.40;;;6.27;;
5702;SDS011;2876;51.738;10.050;2023-03-21T12:48:59;10.53;;;6.37;;
5702;SDS011;2876;51.738;10.050;2023-03-21T12:55:18;8.90;;;6.23;;
5702;SDS011;2876;51.738;10.050;2023-03-21T13:01:29;12.77;;;6.50;;
5702;SDS011;2876;51.738;10.050;2023-03-21T13:07:36;14.13;;;6.63;;
5702;SDS011;2876;51.738;10.050;2023-03-21T13:19:57;13.30;;;6.97;;
5702;SDS011;2876;51.738;10.050;2023-03-21T13:26:13;12.60;;;7.47;;
5702;SDS011;2876;51.738;10.050;2023-03-21T13:32:29;14.30;;;6.43;;
5702;SDS011;2876;51.738;10.050;2023-03-21T13:38:47;10.73;;;5.80;;
5702;SDS011;2876;51.738;10.050;2023-03-21T13:44:56;18.30;;;6.97;;
5702;SDS011;2876;51.738;10.050;2023-03-21T13:51:03;9.00;;;5.73;;
5702;SDS011;2876;51.738;10.050;2023-03-21T13:57:18;8.37;;;5.30;;
5702;SDS011;2876;51.738;10.050;2023-03-21T14:03:30;13.57;;;6.63;;
5702;SDS011;2876;51.738;10.050;2023-03-21T14:09:39;14.50;;;6.00;;
5702;SDS011;2876;51.738;10.050;2023-03-21T14:16:32;14.00;;;6.63;;
5702;SDS011;2876;51.738;10.050;2023-03-21T14:22:14;12.73;;;7.70;;
5702;SDS011;2876;51.738;10.050;2023-03-21T14:34:19;12.90;;;7.37;;
5702;SDS011;2876;51.738;10.050;2023-03-21T14:40:25;12.73;;;7.40;;
5702;SDS011;2876;51.738;10.050;2023-03-21T14:46:28;13.77;;;6.70;;
5702;SDS011;2876;51.738;10.050;2023-03-21T14:52:31;13.13;;;7.40;;
5702;SDS011;2876;51.738;10.050;2023-03-21T14:58:38;15.97;;;7.60;;
5702;SDS011;2876;51.738;10.050;2023-03-21T15:04:44;15.13;;;8.93;;
5702;SDS011;2876;51.738;10.050;2023-03-21T15:10:55;13.20;;;7.03;;
5702;SDS011;2876;51.738;10.050;2023-03-21T15:17:08;15.87;;;7.70;;
5702;SDS011;2876;51.738;10.050;2023-03-21T15:23:12;16.67;;;7.63;;
5702;SDS011;2876;51.738;10.050;2023-03-21T15:29:39;16.33;;;7.40;;
5702;SDS011;2876;51.738;10.050;2023-03-21T15:35:44;17.30;;;6.97;;
5702;SDS011;2876;51.738;10.050;2023-03-21T15:42:00;11.23;;;6.27;;
5702;SDS011;2876;51.738;10.050;2023-03-21T15:48:08;11.73;;;6.20;;
5702;SDS011;2876;51.738;10.050;2023-03-21T15:54:15;9.13;;;5.60;;
5702;SDS011;2876;51.738;10.050;2023-03-21T16:00:39;14.60;;;6.17;;
5702;SDS011;2876;51.738;10.050;2023-03-21T16:07:17;10.47;;;6.07;;
5702;SDS011;2876;51.738;10.050;2023-03-21T16:13:17;9.77;;;5.17;;
5702;SDS011;2876;51.738;10.050;2023-03-21T16:19:19;11.20;;;5.70;;
5702;SDS011;2876;51.738;10.050;2023-03-21T16:25:21;9.20;;;5.80;;
5702;SDS011;2876;51.738;10.050;2023-03-21T16:31:24;11.70;;;6.67;;
5702;SDS011;2876;51.738;10.050;2023-03-21T16:37:30;8.03;;;5.07;;
5702;SDS011;2876;51.738;10.050;2023-03-21T16:43:32;8.63;;;5.60;;
5702;SDS011;2876;51.738;10.050;2023-03-21T16:49:34;10.77;;;6.07;;
5702;SDS011;2876;51.738;10.050;2023-03-21T16:55:36;9.10;;;5.83;;
5702;SDS011;2876;51.738;10.050;2023-03-21T17:01:39;8.07;;;6.20;;
5702;SDS011;2876;51.738;10.050;2023-03-21T17:07:42;8.40;;;6.60;;
5702;SDS011;2876;51.738;10.050;2023-03-21T17:13:44;13.17;;;7.80;;
5702;SDS011;2876;51.738;10.050;2023-03-21T17:19:48;11.40;;;7.50;;
5702;SDS011;2876;51.738;10.050;2023-03-21T17:25:50;12.70;;;7.63;;
5702;SDS011;2876;51.738;10.050;2023-03-21T17:31:52;11.17;;;7.60;;
5702;SDS011;2876;51.738;10.050;2023-03-21T17:37:54;10.23;;;7.03;;
5702;SDS011;2876;51.738;10.050;2023-03-21T17:43:58;12.83;;;6.80;;
5702;SDS011;2876;51.738;10.050;2023-03-21T17:50:01;9.37;;;7.50;;
5702;SDS011;2876;51.738;10.050;2023-03-21T17:56:03;10.53;;;6.90;;
5702;SDS011;2876;51.738;10.050;2023-03-21T18:02:05;12.40;;;7.67;;
5702;SDS011;2876;51.738;10.050;2023-03-21T18:08:09;10.57;;;7.43;;
5702;SDS011;2876;51.738;10.050;2023-03-21T18:14:13;11.93;;;7.67;;
5702;SDS011;2876;51.738;10.050;2023-03-21T18:20:20;16.10;;;7.20;;
5702;SDS011;2876;51.738;10.050;2023-03-21T18:26:47;11.10;;;6.40;;
5702;SDS011;2876;51.738;10.050;2023-03-21T18:32:49;12.20;;;6.03;;
5702;SDS011;2876;51.738;10.050;2023-03-21T18:38:51;6.73;;;4.97;;
5702;SDS011;2876;51.738;10.050;2023-03-21T18:44:53;8.70;;;5.77;;
5702;SDS011;2876;51.738;10.050;2023-03-21T18:50:55;11.03;;;7.23;;
5702;SDS011;2876;51.738;10.050;2023-03-21T18:56:57;8.43;;;5.70;;
5702;SDS011;2876;51.738;10.050;2023-03-21T19:03:20;7.27;;;4.97;;
5702;SDS011;2876;51.738;10.050;2023-03-21T19:09:37;7.50;;;5.50;;
5702;SDS011;2876;51.738;10.050;2023-03-21T19:15:59;6.53;;;4.70;;
5702;SDS011;2876;51.738;10.050;2023-03-21T19:22:03;7.90;;;5.20;;
5702;SDS011;2876;51.738;10.050;2023-03-21T19:28:05;6.20;;;5.20;;
5702;SDS011;2876;51.738;10.050;2023-03-21T19:34:07;6.90;;;5.00;;
5702;SDS011;2876;51.738;10.050;2023-03-21T19:40:09;6.67;;;5.00;;
5702;SDS011;2876;51.738;10.050;2023-03-21T19:46:11;12.97;;;5.90;;
5702;SDS011;2876;51.738;10.050;2023-03-21T19:52:17;9.23;;;5.40;;
5702;SDS011;2876;51.738;10.050;2023-03-21T19:58:20;8.10;;;5.77;;
5702;SDS011;2876;51.738;10.050;2023-03-21T20:04:23;9.13;;;7.00;;
5702;SDS011;2876;51.738;10.050;2023-03-21T20:10:24;10.30;;;7.40;;
5702;SDS011;2876;51.738;10.050;2023-03-21T20:16:28;21.70;;;8.80;;
5702;SDS011;2876;51.738;10.050;2023-03-21T20:22:35;13.03;;;8.27;;
5702;SDS011;2876;51.738;10.050;2023-03-21T20:28:57;14.93;;;9.90;;
5702;SDS011;2876;51.738;10.050;2023-03-21T20:35:19;15.40;;;10.63;;
5702;SDS011;2876;51.738;10.050;2023-03-21T20:41:42;15.60;;;11.30;;
5702;SDS011;2876;51.738;10.050;2023-03-21T20:47:44;22.27;;;10.37;;
5702;SDS011;2876;51.738;10.050;2023-03-21T20:53:46;17.70;;;11.43;;
5702;SDS011;2876;51.738;10.050;2023-03-21T20:59:48;18.10;;;11.27;;
5702;SDS011;2876;51.738;10.050;2023-03-21T21:05:50;15.57;;;11.77;;
5702;SDS011;2876;51.738;10.050;2023-03-21T21:11:52;16.73;;;11.53;;
5702;SDS011;2876;51.738;10.050;2023-03-21T21:18:07;17.73;;;11.70;;
5702;SDS011;2876;51.738;10.050;2023-03-21T21:24:10;16.43;;;11.67;;
5702;SDS011;2876;51.738;10.050;2023-03-21T21:30:14;16.23;;;11.37;;
5702;SDS011;2876;51.738;10.050;2023-03-21T21:36:17;16.07;;;12.40;;
5702;SDS011;2876;51.738;10.050;2023-03-21T21:42:21;16.13;;;11.97;;
5702;SDS011;2876;51.738;10.050;2023-03-21T21:48:23;18.60;;;12.17;;
5702;SDS011;2876;51.738;10.050;2023-03-21T21:54:25;16.23;;;11.87;;
5702;SDS011;2876;51.738;10.050;2023-03-21T22:00:30;19.80;;;13.17;;
5702;SDS011;2876;51.738;10.050;2023-03-21T22:06:33;18.43;;;12.10;;
5702;SDS011;2876;51.738;10.050;2023-03-21T22:12:35;15.77;;;11.47;;
5702;SDS011;2876;51.738;10.050;2023-03-21T22:18:37;14.73;;;11.10;;
5702;SDS011;2876;51.738;10.050;2023-03-21T22:24:39;19.70;;;10.67;;
5702;SDS011;2876;51.738;10.050;2023-03-21T22:30:41;19.03;;;12.27;;
5702;SDS011;2876;51.738;10.050;2023-03-21T22:36:43;13.90;;;10.80;;
5702;SDS011;2876;51.738;10.050;2023-03-21T22:42:47;23.43;;;11.67;;
5702;SDS011;2876;51.738;10.050;2023-03-21T22:48:49;16.53;;;12.33;;
5702;SDS011;2876;51.738;10.050;2023-03-21T22:54:51;17.80;;;10.90;;
5702;SDS011;2876;51.738;10.050;2023-03-21T23:00:58;13.40;;;10.07;;
5702;SDS011;2876;51.738;10.050;2023-03-21T23:07:02;14.43;;;10.90;;
5702;SDS011;2876;51.738;10.050;2023-03-21T23:13:04;16.00;;;10.87;;
5702;SDS011;2876;51.738;10.050;2023-03-21T23:19:06;16.87;;;11.90;;
5702;SDS011;2876;51.738;10.050;2023-03-21T23:25:10;17.60;;;12.27;;
5702;SDS011;2876;51.738;10.050;2023-03-21T23:31:13;15.90;;;11.23;;
5702;SDS011;2876;51.738;10.050;2023-03-21T23:37:18;15.07;;;10.63;;
5702;SDS011;2876;51.738;10.050;2023-03-21T23:43:21;15.27;;;10.40;;
5702;SDS011;2876;51.738;10.050;2023-03-21T23:49:23;16.40;;;10.53;;
5702;SDS011;2876;51.738;10.050;2023-03-21T23:55:26;15.20;;;10.63;;
